sensor_id;sensor_type;location;lat;lon;timestamp;P1;durP1;ratioP1;P2;durP2;ratioP2
32250;SDS011;41295;48.518;9.206;2023-07-20T00:01:40;7.68;;;2.03;;
32250;SDS011;41295;48.518;9.206;2023-07-20T00:03:46;3.45;;;1.92;;
32250;SDS011;41295;48.518;9.206;2023-07-20T00:05:56;3.70;;;1.70;;
32250;SDS011;41295;48.518;9.206;2023-07-20T00:07:59;5.00;;;1.80;;
32250;SDS011;41295;48.518;9.206;2023-07-20T00:10:02;8.13;;;1.83;;
32250;SDS011;41295;48.518;9.206;2023-07-20T00:12:07;3.42;;;1.75;;
32250;SDS011;41295;48.518;9.206;2023-07-20T00:14:09;5.32;;;2.03;;
32250;SDS011;41295;48.518;9.206;2023-07-20T00:16:12;5.30;;;2.50;;
32250;SDS011;41295;48.518;9.206;2023-07-20T00:18:14;4.25;;;1.65;;
32250;SDS011;41295;48.518;9.206;2023-07-20T00:20:17;4.32;;;2.13;;
32250;SDS011;41295;48.518;9.206;2023-07-20T00:22:19;4.15;;;1.90;;
32250;SDS011;41295;48.518;9.206;2023-07-20T00:24:22;6.53;;;2.15;;
32250;SDS011;41295;48.518;9.206;2023-07-20T00:26:24;2.92;;;2.17;;
32250;SDS011;41295;48.518;9.206;2023-07-20T00:28:28;11.13;;;2.53;;
32250;SDS011;41295;48.518;9.206;2023-07-20T00:30:31;7.43;;;2.33;;
32250;SDS011;41295;48.518;9.206;2023-07-20T00:32:34;5.55;;;2.40;;
32250;SDS011;41295;48.518;9.206;2023-07-20T00:34:37;3.55;;;2.10;;
32250;SDS011;41295;48.518;9.206;2023-07-20T00:36:39;3.40;;;2.20;;
32250;SDS011;41295;48.518;9.206;2023-07-20T00:38:42;8.48;;;2.30;;
32250;SDS011;41295;48.518;9.206;2023-07-20T00:40:45;7.43;;;2.47;;
32250;SDS011;41295;48.518;9.206;2023-07-20T00:42:49;5.18;;;2.28;;
32250;SDS011;41295;48.518;9.206;2023-07-20T00:44:52;4.38;;;2.47;;
32250;SDS011;41295;48.518;9.206;2023-07-20T00:46:55;8.35;;;2.40;;
32250;SDS011;41295;48.518;9.206;2023-07-20T00:48:58;8.73;;;2.80;;
32250;SDS011;41295;48.518;9.206;2023-07-20T00:51:01;5.18;;;2.60;;
32250;SDS011;41295;48.518;9.206;2023-07-20T00:53:04;4.18;;;2.35;;
32250;SDS011;41295;48.518;9.206;2023-07-20T00:55:07;4.57;;;2.38;;
32250;SDS011;41295;48.518;9.206;2023-07-20T00:57:11;3.75;;;2.70;;
32250;SDS011;41295;48.518;9.206;2023-07-20T00:59:17;5.75;;;2.33;;
32250;SDS011;41295;48.518;9.206;2023-07-20T01:01:21;3.05;;;2.20;;
32250;SDS011;41295;48.518;9.206;2023-07-20T01:03:24;6.40;;;2.08;;
32250;SDS011;41295;48.518;9.206;2023-07-20T01:05:30;5.13;;;2.55;;
32250;SDS011;41295;48.518;9.206;2023-07-20T01:07:41;3.65;;;2.38;;
32250;SDS011;41295;48.518;9.206;2023-07-20T01:09:48;5.32;;;2.53;;
32250;SDS011;41295;48.518;9.206;2023-07-20T01:12:02;6.07;;;2.90;;
32250;SDS011;41295;48.518;9.206;2023-07-20T01:14:12;4.78;;;2.30;;
32250;SDS011;41295;48.518;9.206;2023-07-20T01:16:16;4.90;;;2.50;;
32250;SDS011;41295;48.518;9.206;2023-07-20T01:18:20;3.42;;;2.35;;
32250;SDS011;41295;48.518;9.206;2023-07-20T01:20:23;5.82;;;2.90;;
32250;SDS011;41295;48.518;9.206;2023-07-20T01:22:32;5.97;;;2.47;;
32250;SDS011;41295;48.518;9.206;2023-07-20T01:24:51;4.60;;;3.20;;
32250;SDS011;41295;48.518;9.206;2023-07-20T01:27:18;3.47;;;2.28;;
32250;SDS011;41295;48.518;9.206;2023-07-20T01:29:50;5.22;;;2.50;;
32250;SDS011;41295;48.518;9.206;2023-07-20T01:32:06;6.75;;;3.00;;
32250;SDS011;41295;48.518;9.206;2023-07-20T01:34:11;4.80;;;2.28;;
32250;SDS011;41295;48.518;9.206;2023-07-20T01:36:16;5.75;;;2.88;;
32250;SDS011;41295;48.518;9.206;2023-07-20T01:38:21;6.15;;;2.13;;
32250;SDS011;41295;48.518;9.206;2023-07-20T01:40:26;10.88;;;3.17;;
32250;SDS011;41295;48.518;9.206;2023-07-20T01:42:29;7.13;;;2.60;;
32250;SDS011;41295;48.518;9.206;2023-07-20T01:44:32;4.45;;;2.58;;
32250;SDS011;41295;48.518;9.206;2023-07-20T01:46:35;4.13;;;2.90;;
32250;SDS011;41295;48.518;9.206;2023-07-20T01:48:39;7.28;;;2.30;;
32250;SDS011;41295;48.518;9.206;2023-07-20T01:50:42;4.70;;;2.47;;
32250;SDS011;41295;48.518;9.206;2023-07-20T01:52:45;5.15;;;2.38;;
32250;SDS011;41295;48.518;9.206;2023-07-20T01:54:48;5.90;;;2.55;;
32250;SDS011;41295;48.518;9.206;2023-07-20T01:56:50;6.03;;;2.53;;
32250;SDS011;41295;48.518;9.206;2023-07-20T01:58:53;4.03;;;2.72;;
32250;SDS011;41295;48.518;9.206;2023-07-20T02:00:55;4.88;;;2.70;;
32250;SDS011;41295;48.518;9.206;2023-07-20T02:02:58;3.78;;;2.42;;
32250;SDS011;41295;48.518;9.206;2023-07-20T02:05:03;4.30;;;2.72;;
32250;SDS011;41295;48.518;9.206;2023-07-20T02:07:06;6.57;;;2.38;;
32250;SDS011;41295;48.518;9.206;2023-07-20T02:09:09;4.90;;;2.85;;
32250;SDS011;41295;48.518;9.206;2023-07-20T02:11:14;5.10;;;2.35;;
32250;SDS011;41295;48.518;9.206;2023-07-20T02:13:17;3.97;;;2.45;;
32250;SDS011;41295;48.518;9.206;2023-07-20T02:15:19;3.42;;;2.55;;
32250;SDS011;41295;48.518;9.206;2023-07-20T02:17:22;9.00;;;2.83;;
32250;SDS011;41295;48.518;9.206;2023-07-20T02:19:25;6.97;;;2.70;;
32250;SDS011;41295;48.518;9.206;2023-07-20T02:21:29;5.55;;;2.53;;
32250;SDS011;41295;48.518;9.206;2023-07-20T02:23:31;4.22;;;2.42;;
32250;SDS011;41295;48.518;9.206;2023-07-20T02:25:35;5.15;;;2.42;;
32250;SDS011;41295;48.518;9.206;2023-07-20T02:27:38;7.15;;;2.63;;
32250;SDS011;41295;48.518;9.206;2023-07-20T02:29:41;4.95;;;2.50;;
32250;SDS011;41295;48.518;9.206;2023-07-20T02:31:44;4.60;;;2.25;;
32250;SDS011;41295;48.518;9.206;2023-07-20T02:33:47;5.25;;;2.53;;
32250;SDS011;41295;48.518;9.206;2023-07-20T02:35:49;6.03;;;2.63;;
32250;SDS011;41295;48.518;9.206;2023-07-20T02:37:55;6.65;;;2.58;;
32250;SDS011;41295;48.518;9.206;2023-07-20T02:39:57;5.63;;;2.55;;
32250;SDS011;41295;48.518;9.206;2023-07-20T02:41:59;5.13;;;2.45;;
32250;SDS011;41295;48.518;9.206;2023-07-20T02:44:02;3.55;;;2.20;;
32250;SDS011;41295;48.518;9.206;2023-07-20T02:46:04;6.88;;;2.90;;
32250;SDS011;41295;48.518;9.206;2023-07-20T02:48:07;4.15;;;2.53;;
32250;SDS011;41295;48.518;9.206;2023-07-20T02:50:10;9.27;;;3.22;;
32250;SDS011;41295;48.518;9.206;2023-07-20T02:52:12;6.30;;;2.47;;
32250;SDS011;41295;48.518;9.206;2023-07-20T02:54:16;4.72;;;2.45;;
32250;SDS011;41295;48.518;9.206;2023-07-20T02:56:19;5.38;;;2.40;;
32250;SDS011;41295;48.518;9.206;2023-07-20T02:58:22;5.72;;;2.85;;
32250;SDS011;41295;48.518;9.206;2023-07-20T03:00:24;3.30;;;2.38;;
32250;SDS011;41295;48.518;9.206;2023-07-20T03:02:28;7.05;;;2.83;;
32250;SDS011;41295;48.518;9.206;2023-07-20T03:04:32;4.03;;;2.85;;
32250;SDS011;41295;48.518;9.206;2023-07-20T03:06:34;3.35;;;2.30;;
32250;SDS011;41295;48.518;9.206;2023-07-20T03:08:37;7.57;;;3.17;;
32250;SDS011;41295;48.518;9.206;2023-07-20T03:10:43;5.15;;;2.72;;
32250;SDS011;41295;48.518;9.206;2023-07-20T03:12:46;2.95;;;2.17;;
32250;SDS011;41295;48.518;9.206;2023-07-20T03:14:49;4.57;;;2.80;;
32250;SDS011;41295;48.518;9.206;2023-07-20T03:16:50;4.45;;;2.55;;
32250;SDS011;41295;48.518;9.206;2023-07-20T03:18:53;4.93;;;2.63;;
32250;SDS011;41295;48.518;9.206;2023-07-20T03:20:56;8.07;;;2.72;;
32250;SDS011;41295;48.518;9.206;2023-07-20T03:22:59;3.67;;;2.55;;
32250;SDS011;41295;48.518;9.206;2023-07-20T03:25:02;6.78;;;2.45;;
32250;SDS011;41295;48.518;9.206;2023-07-20T03:27:07;6.18;;;2.47;;
32250;SDS011;41295;48.518;9.206;2023-07-20T03:29:09;4.82;;;2.90;;
32250;SDS011;41295;48.518;9.206;2023-07-20T03:31:12;6.97;;;2.58;;
32250;SDS011;41295;48.518;9.206;2023-07-20T03:33:16;6.82;;;2.42;;
32250;SDS011;41295;48.518;9.206;2023-07-20T03:35:19;6.32;;;2.60;;
32250;SDS011;41295;48.518;9.206;2023-07-20T03:37:21;4.82;;;2.20;;
32250;SDS011;41295;48.518;9.206;2023-07-20T03:39:24;4.93;;;2.42;;
32250;SDS011;41295;48.518;9.206;2023-07-20T03:41:27;6.82;;;2.83;;
32250;SDS011;41295;48.518;9.206;2023-07-20T03:43:31;5.85;;;2.35;;
32250;SDS011;41295;48.518;9.206;2023-07-20T03:45:33;5.47;;;2.50;;
32250;SDS011;41295;48.518;9.206;2023-07-20T03:47:36;5.13;;;3.30;;
32250;SDS011;41295;48.518;9.206;2023-07-20T03:49:39;5.60;;;2.40;;
32250;SDS011;41295;48.518;9.206;2023-07-20T03:51:41;5.88;;;2.33;;
32250;SDS011;41295;48.518;9.206;2023-07-20T03:53:44;6.85;;;2.85;;
32250;SDS011;41295;48.518;9.206;2023-07-20T03:55:47;4.57;;;2.80;;
32250;SDS011;41295;48.518;9.206;2023-07-20T03:57:50;4.75;;;2.70;;
32250;SDS011;41295;48.518;9.206;2023-07-20T03:59:54;4.85;;;2.22;;
32250;SDS011;41295;48.518;9.206;2023-07-20T04:01:57;5.65;;;2.50;;
32250;SDS011;41295;48.518;9.206;2023-07-20T04:03:59;6.93;;;2.53;;
32250;SDS011;41295;48.518;9.206;2023-07-20T04:06:02;6.07;;;2.85;;
32250;SDS011;41295;48.518;9.206;2023-07-20T04:08:05;3.83;;;2.30;;
32250;SDS011;41295;48.518;9.206;2023-07-20T04:10:08;8.00;;;4.95;;
32250;SDS011;41295;48.518;9.206;2023-07-20T04:12:11;5.40;;;3.40;;
32250;SDS011;41295;48.518;9.206;2023-07-20T04:14:14;7.38;;;3.00;;
32250;SDS011;41295;48.518;9.206;2023-07-20T04:16:18;4.43;;;2.78;;
32250;SDS011;41295;48.518;9.206;2023-07-20T04:18:21;4.20;;;2.50;;
32250;SDS011;41295;48.518;9.206;2023-07-20T04:20:24;5.88;;;2.67;;
32250;SDS011;41295;48.518;9.206;2023-07-20T04:22:26;8.45;;;2.85;;
32250;SDS011;41295;48.518;9.206;2023-07-20T04:24:29;5.50;;;2.95;;
32250;SDS011;41295;48.518;9.206;2023-07-20T04:26:32;6.40;;;2.47;;
32250;SDS011;41295;48.518;9.206;2023-07-20T04:28:34;6.63;;;2.78;;
32250;SDS011;41295;48.518;9.206;2023-07-20T04:30:37;10.05;;;3.08;;
32250;SDS011;41295;48.518;9.206;2023-07-20T04:32:42;4.53;;;2.72;;
32250;SDS011;41295;48.518;9.206;2023-07-20T04:34:47;7.38;;;3.40;;
32250;SDS011;41295;48.518;9.206;2023-07-20T04:36:49;5.75;;;3.20;;
32250;SDS011;41295;48.518;9.206;2023-07-20T04:38:52;5.63;;;3.53;;
32250;SDS011;41295;48.518;9.206;2023-07-20T04:40:55;6.88;;;3.30;;
32250;SDS011;41295;48.518;9.206;2023-07-20T04:42:57;4.65;;;3.03;;
32250;SDS011;41295;48.518;9.206;2023-07-20T04:45:00;8.18;;;3.38;;
32250;SDS011;41295;48.518;9.206;2023-07-20T04:47:03;10.35;;;3.15;;
32250;SDS011;41295;48.518;9.206;2023-07-20T04:49:07;6.50;;;2.95;;
32250;SDS011;41295;48.518;9.206;2023-07-20T04:51:10;6.53;;;2.72;;
32250;SDS011;41295;48.518;9.206;2023-07-20T04:53:13;4.45;;;2.83;;
32250;SDS011;41295;48.518;9.206;2023-07-20T04:55:18;5.82;;;2.75;;
32250;SDS011;41295;48.518;9.206;2023-07-20T04:57:23;6.93;;;2.83;;
32250;SDS011;41295;48.518;9.206;2023-07-20T04:59:26;8.43;;;2.95;;
32250;SDS011;41295;48.518;9.206;2023-07-20T05:01:28;11.27;;;2.80;;
32250;SDS011;41295;48.518;9.206;2023-07-20T05:03:31;4.82;;;2.78;;
32250;SDS011;41295;48.518;9.206;2023-07-20T05:05:36;6.78;;;3.03;;
32250;SDS011;41295;48.518;9.206;2023-07-20T05:07:39;4.95;;;2.70;;
32250;SDS011;41295;48.518;9.206;2023-07-20T05:09:42;4.82;;;2.63;;
32250;SDS011;41295;48.518;9.206;2023-07-20T05:11:44;4.93;;;2.80;;
32250;SDS011;41295;48.518;9.206;2023-07-20T05:13:49;5.40;;;3.03;;
32250;SDS011;41295;48.518;9.206;2023-07-20T05:15:51;6.75;;;2.83;;
32250;SDS011;41295;48.518;9.206;2023-07-20T05:17:54;4.15;;;2.28;;
32250;SDS011;41295;48.518;9.206;2023-07-20T05:19:57;5.90;;;2.45;;
32250;SDS011;41295;48.518;9.206;2023-07-20T05:22:01;3.28;;;2.45;;
32250;SDS011;41295;48.518;9.206;2023-07-20T05:24:04;4.82;;;2.67;;
32250;SDS011;41295;48.518;9.206;2023-07-20T05:26:08;8.43;;;3.00;;
32250;SDS011;41295;48.518;9.206;2023-07-20T05:28:11;6.28;;;2.67;;
32250;SDS011;41295;48.518;9.206;2023-07-20T05:30:13;8.10;;;2.35;;
32250;SDS011;41295;48.518;9.206;2023-07-20T05:32:16;4.03;;;2.47;;
32250;SDS011;41295;48.518;9.206;2023-07-20T05:34:19;5.43;;;2.50;;
32250;SDS011;41295;48.518;9.206;2023-07-20T05:36:22;6.22;;;2.45;;
32250;SDS011;41295;48.518;9.206;2023-07-20T05:38:26;6.57;;;2.78;;
32250;SDS011;41295;48.518;9.206;2023-07-20T05:40:29;5.75;;;2.83;;
32250;SDS011;41295;48.518;9.206;2023-07-20T05:42:31;4.18;;;2.38;;
32250;SDS011;41295;48.518;9.206;2023-07-20T05:44:34;5.07;;;2.38;;
32250;SDS011;41295;48.518;9.206;2023-07-20T05:46:38;5.35;;;2.85;;
32250;SDS011;41295;48.518;9.206;2023-07-20T05:48:57;4.30;;;2.70;;
32250;SDS011;41295;48.518;9.206;2023-07-20T05:50:59;5.18;;;3.08;;
32250;SDS011;41295;48.518;9.206;2023-07-20T05:53:02;6.25;;;2.83;;
32250;SDS011;41295;48.518;9.206;2023-07-20T05:55:07;8.00;;;3.38;;
32250;SDS011;41295;48.518;9.206;2023-07-20T05:57:10;5.38;;;2.83;;
32250;SDS011;41295;48.518;9.206;2023-07-20T05:59:12;6.32;;;2.85;;
32250;SDS011;41295;48.518;9.206;2023-07-20T06:01:15;7.93;;;2.88;;
32250;SDS011;41295;48.518;9.206;2023-07-20T06:03:19;5.20;;;2.75;;
32250;SDS011;41295;48.518;9.206;2023-07-20T06:05:23;6.35;;;2.80;;
32250;SDS011;41295;48.518;9.206;2023-07-20T06:07:29;6.25;;;2.67;;
32250;SDS011;41295;48.518;9.206;2023-07-20T06:09:32;8.32;;;2.63;;
32250;SDS011;41295;48.518;9.206;2023-07-20T06:11:36;8.18;;;2.72;;
32250;SDS011;41295;48.518;9.206;2023-07-20T06:13:39;4.90;;;3.03;;
32250;SDS011;41295;48.518;9.206;2023-07-20T06:15:42;4.00;;;2.80;;
32250;SDS011;41295;48.518;9.206;2023-07-20T06:17:44;7.57;;;2.65;;
32250;SDS011;41295;48.518;9.206;2023-07-20T06:19:47;5.82;;;2.70;;
32250;SDS011;41295;48.518;9.206;2023-07-20T06:21:50;8.50;;;2.75;;
32250;SDS011;41295;48.518;9.206;2023-07-20T06:23:53;5.18;;;2.90;;
32250;SDS011;41295;48.518;9.206;2023-07-20T06:25:55;9.23;;;2.80;;
32250;SDS011;41295;48.518;9.206;2023-07-20T06:27:59;8.00;;;2.65;;
32250;SDS011;41295;48.518;9.206;2023-07-20T06:30:02;7.45;;;2.55;;
32250;SDS011;41295;48.518;9.206;2023-07-20T06:32:06;4.30;;;2.80;;
32250;SDS011;41295;48.518;9.206;2023-07-20T06:34:09;4.43;;;2.33;;
32250;SDS011;41295;48.518;9.206;2023-07-20T06:36:12;5.35;;;2.35;;
32250;SDS011;41295;48.518;9.206;2023-07-20T06:38:15;5.30;;;2.75;;
32250;SDS011;41295;48.518;9.206;2023-07-20T06:40:21;5.97;;;2.92;;
32250;SDS011;41295;48.518;9.206;2023-07-20T06:42:26;6.28;;;2.38;;
32250;SDS011;41295;48.518;9.206;2023-07-20T06:44:50;9.02;;;2.70;;
32250;SDS011;41295;48.518;9.206;2023-07-20T06:46:53;6.38;;;2.97;;
32250;SDS011;41295;48.518;9.206;2023-07-20T06:48:55;3.83;;;2.55;;
32250;SDS011;41295;48.518;9.206;2023-07-20T06:51:01;5.30;;;3.03;;
32250;SDS011;41295;48.518;9.206;2023-07-20T06:53:04;9.65;;;2.83;;
32250;SDS011;41295;48.518;9.206;2023-07-20T06:55:07;7.50;;;3.08;;
32250;SDS011;41295;48.518;9.206;2023-07-20T06:57:10;3.67;;;2.40;;
32250;SDS011;41295;48.518;9.206;2023-07-20T06:59:16;7.47;;;2.92;;
32250;SDS011;41295;48.518;9.206;2023-07-20T07:01:20;6.32;;;2.53;;
32250;SDS011;41295;48.518;9.206;2023-07-20T07:03:24;18.55;;;2.70;;
32250;SDS011;41295;48.518;9.206;2023-07-20T07:05:29;7.18;;;2.90;;
32250;SDS011;41295;48.518;9.206;2023-07-20T07:07:36;11.35;;;5.32;;
32250;SDS011;41295;48.518;9.206;2023-07-20T07:09:42;12.65;;;2.97;;
32250;SDS011;41295;48.518;9.206;2023-07-20T07:11:44;4.40;;;2.55;;
32250;SDS011;41295;48.518;9.206;2023-07-20T07:13:47;3.33;;;2.03;;
32250;SDS011;41295;48.518;9.206;2023-07-20T07:15:52;6.13;;;2.65;;
32250;SDS011;41295;48.518;9.206;2023-07-20T07:17:56;5.20;;;2.92;;
32250;SDS011;41295;48.518;9.206;2023-07-20T07:20:00;5.18;;;2.60;;
32250;SDS011;41295;48.518;9.206;2023-07-20T07:22:03;5.32;;;2.88;;
32250;SDS011;41295;48.518;9.206;2023-07-20T07:24:06;6.05;;;2.47;;
32250;SDS011;41295;48.518;9.206;2023-07-20T07:26:11;4.78;;;2.60;;
32250;SDS011;41295;48.518;9.206;2023-07-20T07:28:13;7.38;;;2.42;;
32250;SDS011;41295;48.518;9.206;2023-07-20T07:30:16;3.97;;;2.80;;
32250;SDS011;41295;48.518;9.206;2023-07-20T07:32:19;5.55;;;2.50;;
32250;SDS011;41295;48.518;9.206;2023-07-20T07:34:23;6.93;;;3.05;;
32250;SDS011;41295;48.518;9.206;2023-07-20T07:36:26;4.40;;;2.67;;
32250;SDS011;41295;48.518;9.206;2023-07-20T07:38:29;7.30;;;3.05;;
32250;SDS011;41295;48.518;9.206;2023-07-20T07:40:51;14.23;;;5.05;;
32250;SDS011;41295;48.518;9.206;2023-07-20T07:42:54;5.97;;;3.08;;
32250;SDS011;41295;48.518;9.206;2023-07-20T07:44:56;5.38;;;2.80;;
32250;SDS011;41295;48.518;9.206;2023-07-20T07:46:58;7.38;;;2.50;;
32250;SDS011;41295;48.518;9.206;2023-07-20T07:49:01;5.35;;;2.67;;
32250;SDS011;41295;48.518;9.206;2023-07-20T07:51:06;4.30;;;2.50;;
32250;SDS011;41295;48.518;9.206;2023-07-20T07:53:09;7.90;;;3.05;;
32250;SDS011;41295;48.518;9.206;2023-07-20T07:55:12;5.18;;;2.58;;
32250;SDS011;41295;48.518;9.206;2023-07-20T07:57:14;8.23;;;2.90;;
32250;SDS011;41295;48.518;9.206;2023-07-20T07:59:16;9.93;;;3.17;;
32250;SDS011;41295;48.518;9.206;2023-07-20T08:01:19;4.93;;;2.42;;
32250;SDS011;41295;48.518;9.206;2023-07-20T08:03:22;5.10;;;2.92;;
32250;SDS011;41295;48.518;9.206;2023-07-20T08:05:25;10.88;;;3.10;;
32250;SDS011;41295;48.518;9.206;2023-07-20T08:07:29;6.18;;;2.50;;
32250;SDS011;41295;48.518;9.206;2023-07-20T08:09:32;5.25;;;2.83;;
32250;SDS011;41295;48.518;9.206;2023-07-20T08:11:35;4.28;;;2.80;;
32250;SDS011;41295;48.518;9.206;2023-07-20T08:13:37;8.75;;;2.88;;
32250;SDS011;41295;48.518;9.206;2023-07-20T08:15:45;6.15;;;2.75;;
32250;SDS011;41295;48.518;9.206;2023-07-20T08:17:50;5.93;;;2.90;;
32250;SDS011;41295;48.518;9.206;2023-07-20T08:19:54;4.47;;;2.80;;
32250;SDS011;41295;48.518;9.206;2023-07-20T08:21:56;4.97;;;2.72;;
32250;SDS011;41295;48.518;9.206;2023-07-20T08:24:00;5.53;;;2.42;;
32250;SDS011;41295;48.518;9.206;2023-07-20T08:26:03;7.10;;;2.67;;
32250;SDS011;41295;48.518;9.206;2023-07-20T08:28:05;5.00;;;2.97;;
32250;SDS011;41295;48.518;9.206;2023-07-20T08:30:08;6.55;;;2.65;;
32250;SDS011;41295;48.518;9.206;2023-07-20T08:32:11;5.15;;;2.40;;
32250;SDS011;41295;48.518;9.206;2023-07-20T08:34:15;7.30;;;2.30;;
32250;SDS011;41295;48.518;9.206;2023-07-20T08:36:32;6.40;;;2.50;;
32250;SDS011;41295;48.518;9.206;2023-07-20T08:38:34;4.63;;;2.70;;
32250;SDS011;41295;48.518;9.206;2023-07-20T08:40:42;7.68;;;2.50;;
32250;SDS011;41295;48.518;9.206;2023-07-20T08:42:47;5.32;;;2.70;;
32250;SDS011;41295;48.518;9.206;2023-07-20T08:44:52;4.00;;;2.65;;
32250;SDS011;41295;48.518;9.206;2023-07-20T08:46:57;4.57;;;2.42;;
32250;SDS011;41295;48.518;9.206;2023-07-20T08:49:00;5.18;;;2.67;;
32250;SDS011;41295;48.518;9.206;2023-07-20T08:51:05;5.32;;;2.65;;
32250;SDS011;41295;48.518;9.206;2023-07-20T08:53:08;4.70;;;2.40;;
32250;SDS011;41295;48.518;9.206;2023-07-20T08:55:12;6.53;;;2.45;;
32250;SDS011;41295;48.518;9.206;2023-07-20T08:57:16;3.78;;;2.20;;
32250;SDS011;41295;48.518;9.206;2023-07-20T08:59:20;4.35;;;2.60;;
32250;SDS011;41295;48.518;9.206;2023-07-20T09:01:25;4.07;;;2.30;;
32250;SDS011;41295;48.518;9.206;2023-07-20T09:03:30;5.65;;;2.80;;
32250;SDS011;41295;48.518;9.206;2023-07-20T09:05:34;5.75;;;2.58;;
32250;SDS011;41295;48.518;9.206;2023-07-20T09:07:38;3.55;;;2.15;;
32250;SDS011;41295;48.518;9.206;2023-07-20T09:09:41;5.22;;;2.28;;
32250;SDS011;41295;48.518;9.206;2023-07-20T09:11:46;5.78;;;2.33;;
32250;SDS011;41295;48.518;9.206;2023-07-20T09:14:02;5.53;;;2.50;;
32250;SDS011;41295;48.518;9.206;2023-07-20T09:16:06;4.78;;;2.25;;
32250;SDS011;41295;48.518;9.206;2023-07-20T09:18:09;6.07;;;2.13;;
32250;SDS011;41295;48.518;9.206;2023-07-20T09:20:11;3.85;;;2.28;;
32250;SDS011;41295;48.518;9.206;2023-07-20T09:22:14;3.00;;;2.30;;
32250;SDS011;41295;48.518;9.206;2023-07-20T09:24:18;3.75;;;2.13;;
32250;SDS011;41295;48.518;9.206;2023-07-20T09:26:23;7.82;;;2.40;;
32250;SDS011;41295;48.518;9.206;2023-07-20T09:28:29;4.75;;;2.15;;
32250;SDS011;41295;48.518;9.206;2023-07-20T09:30:33;6.80;;;2.40;;
32250;SDS011;41295;48.518;9.206;2023-07-20T09:32:39;3.50;;;2.28;;
32250;SDS011;41295;48.518;9.206;2023-07-20T09:34:47;3.58;;;2.38;;
32250;SDS011;41295;48.518;9.206;2023-07-20T09:36:50;8.63;;;2.35;;
32250;SDS011;41295;48.518;9.206;2023-07-20T09:38:56;6.05;;;2.42;;
32250;SDS011;41295;48.518;9.206;2023-07-20T09:41:04;3.10;;;2.05;;
32250;SDS011;41295;48.518;9.206;2023-07-20T09:43:28;3.67;;;2.13;;
32250;SDS011;41295;48.518;9.206;2023-07-20T09:45:34;6.18;;;2.40;;
32250;SDS011;41295;48.518;9.206;2023-07-20T09:47:40;5.47;;;2.20;;
32250;SDS011;41295;48.518;9.206;2023-07-20T09:49:43;5.40;;;2.40;;
32250;SDS011;41295;48.518;9.206;2023-07-20T09:51:52;7.65;;;2.17;;
32250;SDS011;41295;48.518;9.206;2023-07-20T09:53:56;2.80;;;1.60;;
32250;SDS011;41295;48.518;9.206;2023-07-20T09:56:00;5.50;;;2.00;;
32250;SDS011;41295;48.518;9.206;2023-07-20T09:58:04;3.33;;;2.13;;
32250;SDS011;41295;48.518;9.206;2023-07-20T10:00:08;3.75;;;2.20;;
32250;SDS011;41295;48.518;9.206;2023-07-20T10:02:20;4.22;;;1.60;;
32250;SDS011;41295;48.518;9.206;2023-07-20T10:04:24;4.68;;;1.90;;
32250;SDS011;41295;48.518;9.206;2023-07-20T10:06:28;4.72;;;2.10;;
32250;SDS011;41295;48.518;9.206;2023-07-20T10:08:32;3.88;;;2.05;;
32250;SDS011;41295;48.518;9.206;2023-07-20T10:10:40;5.15;;;2.03;;
32250;SDS011;41295;48.518;9.206;2023-07-20T10:12:46;9.57;;;1.90;;
32250;SDS011;41295;48.518;9.206;2023-07-20T10:14:52;3.70;;;2.15;;
32250;SDS011;41295;48.518;9.206;2023-07-20T10:17:03;3.55;;;1.80;;
32250;SDS011;41295;48.518;9.206;2023-07-20T10:19:11;4.47;;;2.00;;
32250;SDS011;41295;48.518;9.206;2023-07-20T10:21:19;2.63;;;1.80;;
32250;SDS011;41295;48.518;9.206;2023-07-20T10:23:28;4.53;;;2.00;;
32250;SDS011;41295;48.518;9.206;2023-07-20T10:25:31;10.60;;;2.10;;
32250;SDS011;41295;48.518;9.206;2023-07-20T10:27:38;3.03;;;1.88;;
32250;SDS011;41295;48.518;9.206;2023-07-20T10:29:41;6.35;;;1.73;;
32250;SDS011;41295;48.518;9.206;2023-07-20T10:31:45;2.30;;;1.65;;
32250;SDS011;41295;48.518;9.206;2023-07-20T10:33:48;3.35;;;1.77;;
32250;SDS011;41295;48.518;9.206;2023-07-20T10:35:54;4.45;;;1.77;;
32250;SDS011;41295;48.518;9.206;2023-07-20T10:38:00;6.93;;;2.10;;
32250;SDS011;41295;48.518;9.206;2023-07-20T10:42:32;2.78;;;1.80;;
32250;SDS011;41295;48.518;9.206;2023-07-20T10:44:36;2.42;;;1.60;;
32250;SDS011;41295;48.518;9.206;2023-07-20T10:46:43;3.00;;;1.75;;
32250;SDS011;41295;48.518;9.206;2023-07-20T10:48:59;6.68;;;1.73;;
32250;SDS011;41295;48.518;9.206;2023-07-20T10:51:10;4.07;;;1.80;;
32250;SDS011;41295;48.518;9.206;2023-07-20T10:55:18;4.15;;;1.77;;
32250;SDS011;41295;48.518;9.206;2023-07-20T10:57:24;4.35;;;2.20;;
32250;SDS011;41295;48.518;9.206;2023-07-20T10:59:39;2.55;;;1.70;;
32250;SDS011;41295;48.518;9.206;2023-07-20T11:01:42;2.78;;;1.60;;
32250;SDS011;41295;48.518;9.206;2023-07-20T11:03:49;3.45;;;1.60;;
32250;SDS011;41295;48.518;9.206;2023-07-20T11:05:54;4.13;;;1.60;;
32250;SDS011;41295;48.518;9.206;2023-07-20T11:08:04;6.50;;;2.00;;
32250;SDS011;41295;48.518;9.206;2023-07-20T11:10:14;4.70;;;1.52;;
32250;SDS011;41295;48.518;9.206;2023-07-20T11:12:20;4.07;;;1.38;;
32250;SDS011;41295;48.518;9.206;2023-07-20T11:14:23;3.25;;;1.60;;
32250;SDS011;41295;48.518;9.206;2023-07-20T11:16:33;3.15;;;1.70;;
32250;SDS011;41295;48.518;9.206;2023-07-20T11:18:36;2.42;;;1.67;;
32250;SDS011;41295;48.518;9.206;2023-07-20T11:20:41;3.13;;;1.90;;
32250;SDS011;41295;48.518;9.206;2023-07-20T11:22:44;5.18;;;1.60;;
32250;SDS011;41295;48.518;9.206;2023-07-20T11:24:50;3.92;;;1.70;;
32250;SDS011;41295;48.518;9.206;2023-07-20T11:26:57;8.98;;;1.83;;
32250;SDS011;41295;48.518;9.206;2023-07-20T11:28:59;4.72;;;1.80;;
32250;SDS011;41295;48.518;9.206;2023-07-20T11:31:01;3.05;;;1.42;;
32250;SDS011;41295;48.518;9.206;2023-07-20T11:33:04;3.00;;;1.70;;
32250;SDS011;41295;48.518;9.206;2023-07-20T11:35:09;4.90;;;1.70;;
32250;SDS011;41295;48.518;9.206;2023-07-20T11:37:15;2.50;;;1.88;;
32250;SDS011;41295;48.518;9.206;2023-07-20T11:39:19;4.53;;;1.85;;
32250;SDS011;41295;48.518;9.206;2023-07-20T11:41:27;5.80;;;1.80;;
32250;SDS011;41295;48.518;9.206;2023-07-20T11:43:28;3.28;;;1.80;;
32250;SDS011;41295;48.518;9.206;2023-07-20T11:45:32;3.78;;;1.58;;
32250;SDS011;41295;48.518;9.206;2023-07-20T11:47:39;2.90;;;1.75;;
32250;SDS011;41295;48.518;9.206;2023-07-20T11:49:43;3.35;;;1.83;;
32250;SDS011;41295;48.518;9.206;2023-07-20T11:51:50;4.95;;;1.60;;
32250;SDS011;41295;48.518;9.206;2023-07-20T11:53:53;2.42;;;1.50;;
32250;SDS011;41295;48.518;9.206;2023-07-20T11:55:56;3.42;;;1.67;;
32250;SDS011;41295;48.518;9.206;2023-07-20T11:58:04;4.65;;;1.77;;
32250;SDS011;41295;48.518;9.206;2023-07-20T12:00:09;3.95;;;1.60;;
32250;SDS011;41295;48.518;9.206;2023-07-20T12:02:13;4.25;;;1.73;;
32250;SDS011;41295;48.518;9.206;2023-07-20T12:04:16;2.85;;;1.50;;
32250;SDS011;41295;48.518;9.206;2023-07-20T12:06:22;2.22;;;1.58;;
32250;SDS011;41295;48.518;9.206;2023-07-20T12:08:29;4.28;;;1.70;;
32250;SDS011;41295;48.518;9.206;2023-07-20T12:10:32;2.28;;;1.50;;
32250;SDS011;41295;48.518;9.206;2023-07-20T12:12:37;1.90;;;1.52;;
32250;SDS011;41295;48.518;9.206;2023-07-20T12:14:42;2.92;;;1.40;;
32250;SDS011;41295;48.518;9.206;2023-07-20T12:16:44;4.93;;;1.90;;
32250;SDS011;41295;48.518;9.206;2023-07-20T12:18:59;2.22;;;1.50;;
32250;SDS011;41295;48.518;9.206;2023-07-20T12:21:02;3.90;;;1.88;;
32250;SDS011;41295;48.518;9.206;2023-07-20T12:23:08;2.42;;;1.52;;
32250;SDS011;41295;48.518;9.206;2023-07-20T12:25:11;2.75;;;1.63;;
32250;SDS011;41295;48.518;9.206;2023-07-20T12:27:13;2.38;;;1.50;;
32250;SDS011;41295;48.518;9.206;2023-07-20T12:29:19;2.78;;;1.83;;
32250;SDS011;41295;48.518;9.206;2023-07-20T12:31:24;4.03;;;1.95;;
32250;SDS011;41295;48.518;9.206;2023-07-20T12:33:28;3.03;;;1.45;;
32250;SDS011;41295;48.518;9.206;2023-07-20T12:35:29;4.38;;;1.88;;